Omaha, NE (68101)

10:21 AM CDT on July 29, 2016 (GMT -0500)
Midtown Crossing area | | Change Station

Elev 1161 ft 41.26 °N, 95.96 °W | Updated 9 seconds ago

Mostly Cloudy
Mostly Cloudy
72.0 °F
Feels Like 77 °F
N
2.0
Wind Variable Wind from WSW
Gusts 2.5 mph

Today
High -- | Low -- °F
--% Chance of Precip.
Yesterday
High -- | Low -- °F
Precip. -- in
Pressure 30.05 in
Visibility 10.0 miles
Clouds Scattered Clouds 3100 ft
Scattered Clouds 11000 ft
Scattered Clouds 15000 ft
Mostly Cloudy 25000 ft
Heat Index 77 °F
Dew Point 41 °F
Humidity 33%
Rainfall 0.00 in
Snow Depth Not available.
6:16 AM 8:43 PM
Waning Crescent, 21% visible
METAR KOMA 291452Z 01004KT 10SM SCT031 SCT110 SCT150 BKN250 22/16 A3007 RMK AO2 SLP174 T02220156 50016
Pressure 30.05 in
Visibility 10.0 miles
Clouds Scattered Clouds 3100 ft
Scattered Clouds 11000 ft
Scattered Clouds 15000 ft
Mostly Cloudy 25000 ft
Heat Index 77 °F
Dew Point 41 °F
Humidity 33%
Rainfall 0.00 in
Snow Depth Not available.
6:16 AM 8:43 PM
Waning Crescent, 21% visible
METAR KOMA 291452Z 01004KT 10SM SCT031 SCT110 SCT150 BKN250 22/16 A3007 RMK AO2 SLP174 T02220156 50016

10-Day Weather Forecast

Almanac

Astronomy

Jul. 29, 2016 Rise Set
Actual Time
Civil Twilight
Nautical Twilight
Astronomical Twilight
Moon
Length of Visible Light
Length of Day
Tomorrow will be .
, % of the Moon is Illuminated

Today's Extremes

State Highs State Lows

Community

WunderPhotos

Upload Photos

1,928,346 photos uploaded!

WunderBlog® & News

Nearby

Air Quality

  Air Quality AQ Index Pollutant
Not available.

Snow Depth

Station Depth Elevation

Earthquake Activity

City Distance Mag. Time & Date
Minimum magnitude displayed is 2.5.

Coastal Water Temperatures

Place Temperature

Stations

Nearby Weather Stations

Station Location Temp. Windchill Dew Point Humidity Wind Precip. Elev Updated Type
                   

Watches & Warnings

There are currently no watches in effect.